createdAt,value
2023-02-25T00:01:38.887Z,99.90
2023-02-25T00:04:06.105Z,99.90
2023-02-25T00:06:33.136Z,99.90
2023-02-25T00:09:01.006Z,99.90
2023-02-25T00:11:28.336Z,99.90
2023-02-25T00:13:55.451Z,99.90
2023-02-25T00:16:24.216Z,99.90
2023-02-25T00:18:59.137Z,99.90
2023-02-25T00:21:29.480Z,99.90
2023-02-25T00:24:00.089Z,99.90
2023-02-25T00:26:31.582Z,99.90
2023-02-25T00:28:58.614Z,99.90
2023-02-25T00:31:26.293Z,99.90
2023-02-25T00:33:53.784Z,99.90
2023-02-25T00:36:24.779Z,99.90
2023-02-25T00:38:55.556Z,99.90
2023-02-25T00:41:30.957Z,99.90
2023-02-25T00:44:00.985Z,99.90
2023-02-25T00:46:30.058Z,99.90
2023-02-25T00:48:58.465Z,99.90
2023-02-25T00:51:31.784Z,99.90
2023-02-25T00:53:59.273Z,99.90
2023-02-25T00:56:27.270Z,99.90
2023-02-25T00:58:54.792Z,99.90
2023-02-25T01:01:29.293Z,99.90
2023-02-25T01:03:58.018Z,99.90
2023-02-25T01:06:27.408Z,99.90
2023-02-25T01:08:55.855Z,99.90
2023-02-25T01:11:29.921Z,99.90
2023-02-25T01:14:04.698Z,99.90
2023-02-25T01:16:33.657Z,99.90
2023-02-25T01:19:06.519Z,99.90
2023-02-25T01:21:37.883Z,99.90
2023-02-25T01:24:10.463Z,99.90
2023-02-25T01:26:42.127Z,99.90
2023-02-25T01:29:13.102Z,99.90
2023-02-25T01:31:40.878Z,99.90
2023-02-25T01:34:10.857Z,99.90
2023-02-25T01:36:38.131Z,99.90
2023-02-25T01:39:05.803Z,99.90
2023-02-25T01:41:35.836Z,99.90
2023-02-25T01:44:32.614Z,99.90
2023-02-25T01:47:01.336Z,99.90
2023-02-25T01:49:40.857Z,99.90
2023-02-25T01:52:23.965Z,99.90
2023-02-25T01:54:56.097Z,99.90
2023-02-25T01:57:23.823Z,99.90
2023-02-25T01:59:53.903Z,99.90
2023-02-25T02:02:23.046Z,99.90
2023-02-25T02:04:53.580Z,99.90
2023-02-25T02:07:22.867Z,99.90
2023-02-25T02:09:59.944Z,99.90
2023-02-25T02:12:32.931Z,99.90
2023-02-25T02:15:03.137Z,99.90
2023-02-25T02:17:49.027Z,99.90
2023-02-25T02:20:27.954Z,99.90
2023-02-25T02:23:47.830Z,99.90
2023-02-25T02:26:45.313Z,99.90
2023-02-25T02:29:57.196Z,99.90
2023-02-25T02:32:48.503Z,99.90
2023-02-25T02:35:27.658Z,99.90
2023-02-25T02:37:58.794Z,99.90
2023-02-25T02:40:49.862Z,99.90
2023-02-25T02:43:29.538Z,99.90
2023-02-25T02:46:02.528Z,99.90
2023-02-25T02:48:52.955Z,99.90
2023-02-25T02:51:29.518Z,99.90
2023-02-25T02:54:00.050Z,99.90
2023-02-25T02:56:30.460Z,99.90
2023-02-25T02:59:10.495Z,99.90
2023-02-25T03:01:44.728Z,99.90
2023-02-25T03:04:18.348Z,99.90
2023-02-25T03:06:52.656Z,99.90
2023-02-25T03:09:25.995Z,99.90
2023-02-25T03:11:52.941Z,99.90
2023-02-25T03:14:19.995Z,99.90
2023-02-25T03:17:29.538Z,99.90
2023-02-25T03:20:43.946Z,99.90
2023-02-25T03:23:19.519Z,99.90
2023-02-25T03:25:56.424Z,99.90
2023-02-25T03:28:34.901Z,99.90
2023-02-25T03:31:26.356Z,99.90
2023-02-25T03:34:19.605Z,99.90
2023-02-25T03:37:00.087Z,99.90
2023-02-25T03:39:36.636Z,99.90
2023-02-25T03:42:06.518Z,99.90
2023-02-25T03:44:44.085Z,99.90
2023-02-25T03:47:12.223Z,99.90
2023-02-25T03:50:00.136Z,99.90
2023-02-25T03:52:29.437Z,99.90
2023-02-25T03:54:58.687Z,99.90
2023-02-25T03:57:35.610Z,99.90
2023-02-25T04:00:15.580Z,99.90
2023-02-25T04:02:45.248Z,99.90
2023-02-25T04:05:13.721Z,99.90
2023-02-25T04:07:40.815Z,99.90
2023-02-25T04:10:09.994Z,99.90
2023-02-25T04:12:37.140Z,99.90
2023-02-25T04:15:06.028Z,99.90
2023-02-25T04:17:33.937Z,99.90
2023-02-25T04:20:00.988Z,99.90
2023-02-25T04:22:27.913Z,99.90
2023-02-25T04:24:54.882Z,99.90
2023-02-25T04:27:21.977Z,99.90
2023-02-25T04:29:48.860Z,99.90
2023-02-25T04:32:16.085Z,99.90
2023-02-25T04:34:43.134Z,99.90
2023-02-25T04:37:10.137Z,99.90
2023-02-25T04:39:37.193Z,99.90
2023-02-25T04:42:04.568Z,99.90
2023-02-25T04:44:31.519Z,99.90
2023-02-25T04:46:58.446Z,99.90
2023-02-25T04:49:25.505Z,99.90
2023-02-25T04:51:52.773Z,99.90
2023-02-25T04:54:21.362Z,99.90
2023-02-25T04:56:49.069Z,99.90
2023-02-25T04:59:16.390Z,99.90
2023-02-25T05:01:43.826Z,99.90
2023-02-25T05:04:10.961Z,99.90
2023-02-25T05:06:39.188Z,99.90
2023-02-25T05:09:06.961Z,99.90
2023-02-25T05:11:34.643Z,99.90
2023-02-25T05:14:01.611Z,99.90
2023-02-25T05:16:28.561Z,99.90
2023-02-25T05:18:55.881Z,99.90
2023-02-25T05:21:26.479Z,99.90
2023-02-25T05:23:54.360Z,99.90
2023-02-25T05:26:24.082Z,99.90
2023-02-25T05:28:53.152Z,99.90
2023-02-25T05:31:20.982Z,99.90
2023-02-25T05:33:48.047Z,99.90
2023-02-25T05:36:16.452Z,99.90
2023-02-25T05:38:44.671Z,99.90
2023-02-25T05:41:12.796Z,99.90
2023-02-25T05:43:40.818Z,99.90
2023-02-25T05:46:13.264Z,99.90
2023-02-25T05:48:42.839Z,99.90
2023-02-25T05:51:17.225Z,99.90
2023-02-25T05:53:44.890Z,99.90
2023-02-25T05:56:21.272Z,99.90
2023-02-25T05:58:49.228Z,99.90
2023-02-25T06:01:22.618Z,99.90
2023-02-25T06:03:51.763Z,99.90
2023-02-25T06:06:24.318Z,99.90
2023-02-25T06:08:52.358Z,99.90
2023-02-25T06:11:30.284Z,99.90
2023-02-25T06:13:59.155Z,99.90
2023-02-25T06:16:31.948Z,99.90
2023-02-25T06:19:01.383Z,99.90
2023-02-25T06:21:28.395Z,99.90
2023-02-25T06:23:55.482Z,99.90
2023-02-25T06:26:23.545Z,99.90
2023-02-25T06:28:50.615Z,99.90
2023-02-25T06:31:21.599Z,99.90
2023-02-25T06:33:50.683Z,99.90
2023-02-25T06:36:21.573Z,99.90
2023-02-25T06:38:49.061Z,99.90
2023-02-25T06:41:20.052Z,99.90
2023-02-25T06:43:52.231Z,99.90
2023-02-25T06:46:24.417Z,99.90
2023-02-25T06:48:51.803Z,99.90
2023-02-25T06:51:18.878Z,99.90
2023-02-25T06:53:47.784Z,99.90
2023-02-25T06:56:15.891Z,99.90
2023-02-25T06:58:43.656Z,99.90
2023-02-25T07:01:14.720Z,99.90
2023-02-25T07:03:45.623Z,99.90
2023-02-25T07:06:15.891Z,99.90
2023-02-25T07:08:43.088Z,99.90
2023-02-25T07:11:11.616Z,99.90
2023-02-25T07:13:39.583Z,99.90
2023-02-25T07:16:06.960Z,99.90
2023-02-25T07:18:34.221Z,99.90
2023-02-25T07:21:01.301Z,99.90
2023-02-25T07:23:28.249Z,99.90
2023-02-25T07:25:55.210Z,99.90
2023-02-25T07:28:22.321Z,99.90
2023-02-25T07:30:49.402Z,99.70
2023-02-25T07:33:16.634Z,99.90
2023-02-25T07:35:43.601Z,99.90
2023-02-25T07:38:12.723Z,99.90
2023-02-25T07:40:43.340Z,98.90
2023-02-25T07:43:10.238Z,99.90
2023-02-25T07:45:37.359Z,99.90
2023-02-25T07:48:04.344Z,97.90
2023-02-25T07:50:31.590Z,98.70
2023-02-25T07:52:58.693Z,97.30
2023-02-25T07:55:25.926Z,97.70
2023-02-25T07:57:52.867Z,98.90
2023-02-25T08:00:20.158Z,99.50
2023-02-25T08:02:47.134Z,98.10
2023-02-25T08:05:14.118Z,97.90
2023-02-25T08:07:41.182Z,97.30
2023-02-25T08:10:08.979Z,97.40
2023-02-25T08:12:38.277Z,97.70
2023-02-25T08:15:06.196Z,97.60
2023-02-25T08:17:35.543Z,96.90
2023-02-25T08:20:02.502Z,98.30
2023-02-25T08:22:29.459Z,97.10
2023-02-25T08:24:56.873Z,98.80
2023-02-25T08:27:23.895Z,98.10
2023-02-25T08:29:51.021Z,97.10
2023-02-25T08:32:18.245Z,96.40
2023-02-25T08:34:48.393Z,96.00
2023-02-25T08:37:15.742Z,95.90
2023-02-25T08:39:42.707Z,96.60
2023-02-25T08:42:11.791Z,96.40
2023-02-25T08:44:39.062Z,96.20
2023-02-25T08:47:06.175Z,95.90
2023-02-25T08:49:33.395Z,94.90
2023-02-25T08:52:00.288Z,95.00
2023-02-25T08:54:27.197Z,96.60
2023-02-25T08:56:55.520Z,96.30
2023-02-25T08:59:22.491Z,95.20
2023-02-25T09:01:52.334Z,95.90
2023-02-25T09:04:23.062Z,95.70
2023-02-25T09:06:53.814Z,94.00
2023-02-25T09:09:21.883Z,93.10
2023-02-25T09:11:49.461Z,92.00
2023-02-25T09:14:17.719Z,94.00
2023-02-25T09:16:44.818Z,92.80
2023-02-25T09:19:12.642Z,93.10
2023-02-25T09:21:43.263Z,91.40
2023-02-25T09:24:10.854Z,92.40
2023-02-25T09:26:38.306Z,91.70
2023-02-25T09:29:07.162Z,91.90
2023-02-25T09:31:37.001Z,91.80
2023-02-25T09:34:08.429Z,92.20
2023-02-25T09:36:35.870Z,92.30
2023-02-25T09:39:03.699Z,93.10
2023-02-25T09:42:09.482Z,92.80
2023-02-25T09:44:44.873Z,91.60
2023-02-25T09:47:23.109Z,91.90
2023-02-25T09:50:13.221Z,91.90
2023-02-25T09:52:47.362Z,92.40
2023-02-25T09:55:23.517Z,93.00
2023-02-25T09:58:03.009Z,94.80
2023-02-25T10:00:35.960Z,95.40
2023-02-25T10:03:32.533Z,93.90
2023-02-25T10:06:14.696Z,94.90
2023-02-25T10:09:07.792Z,95.30
2023-02-25T10:11:53.548Z,95.60
2023-02-25T10:15:23.102Z,95.90
2023-02-25T10:18:17.696Z,95.80
2023-02-25T10:21:21.066Z,95.20
2023-02-25T10:24:00.748Z,94.70
2023-02-25T10:26:39.073Z,95.20
2023-02-25T10:29:13.455Z,95.50
2023-02-25T10:31:46.568Z,94.40
2023-02-25T10:34:27.121Z,94.60
2023-02-25T10:36:57.775Z,94.50
2023-02-25T10:39:26.942Z,95.40
2023-02-25T10:41:54.259Z,95.90
2023-02-25T10:44:21.525Z,94.40
2023-02-25T10:46:59.179Z,94.90
2023-02-25T10:49:38.063Z,95.30
2023-02-25T10:52:19.059Z,94.40
2023-02-25T10:54:52.117Z,94.10
2023-02-25T10:57:26.785Z,94.60
2023-02-25T11:00:06.776Z,93.70
2023-02-25T11:02:41.398Z,93.60
2023-02-25T11:05:38.664Z,93.70
2023-02-25T11:08:26.654Z,93.40
2023-02-25T11:11:20.089Z,93.40
2023-02-25T11:14:16.923Z,93.60
2023-02-25T11:16:45.592Z,93.60
2023-02-25T11:19:36.925Z,93.50
2023-02-25T11:22:37.375Z,94.20
2023-02-25T11:25:16.296Z,93.60
2023-02-25T11:27:47.281Z,93.60
2023-02-25T11:30:14.253Z,95.00
2023-02-25T11:32:44.891Z,94.30
2023-02-25T11:35:24.931Z,93.90
2023-02-25T11:37:54.697Z,93.10
2023-02-25T11:40:42.223Z,93.30
2023-02-25T11:46:00.551Z,93.50
2023-02-25T11:48:40.829Z,93.60
2023-02-25T11:51:52.096Z,94.20
2023-02-25T11:54:25.920Z,92.90
2023-02-25T11:57:05.344Z,92.90
2023-02-25T11:59:34.541Z,93.30
2023-02-25T12:02:50.597Z,93.50
2023-02-25T12:05:51.265Z,93.70
2023-02-25T12:08:57.034Z,92.70
2023-02-25T12:12:13.354Z,92.00
2023-02-25T12:15:10.344Z,92.10
2023-02-25T12:17:49.148Z,92.10
2023-02-25T12:20:33.978Z,92.80
2023-02-25T12:23:21.772Z,92.30
2023-02-25T12:25:54.577Z,91.50
2023-02-25T12:28:56.707Z,92.50
2023-02-25T12:31:29.454Z,91.30
2023-02-25T12:34:11.606Z,91.60
2023-02-25T12:36:50.415Z,91.20
2023-02-25T12:39:38.078Z,90.70
2023-02-25T12:42:30.928Z,90.80
2023-02-25T12:45:39.363Z,90.40
2023-02-25T12:48:30.375Z,90.20
2023-02-25T12:51:38.921Z,88.60
2023-02-25T12:54:29.176Z,87.60
2023-02-25T12:57:17.248Z,87.70
2023-02-25T13:00:09.251Z,87.50
2023-02-25T13:02:41.901Z,87.90
2023-02-25T13:05:25.764Z,88.40
2023-02-25T13:08:06.425Z,89.60
2023-02-25T13:10:38.265Z,90.50
2023-02-25T13:13:33.649Z,91.20
2023-02-25T13:16:34.463Z,89.80
2023-02-25T13:19:30.143Z,90.50
2023-02-25T13:22:28.202Z,90.50
2023-02-25T13:25:25.519Z,90.80
2023-02-25T13:28:54.267Z,91.30
2023-02-25T13:32:18.089Z,90.30
2023-02-25T13:35:00.999Z,90.70
2023-02-25T13:37:58.759Z,90.10
2023-02-25T13:40:36.367Z,89.90
2023-02-25T13:43:41.587Z,91.00
2023-02-25T13:46:27.294Z,91.60
2023-02-25T13:49:15.874Z,92.20
2023-02-25T13:52:18.052Z,92.10
2023-02-25T13:55:01.651Z,91.60
2023-02-25T13:58:02.904Z,93.30
2023-02-25T14:00:51.833Z,91.90
2023-02-25T14:03:42.997Z,91.90
2023-02-25T14:06:35.717Z,92.30
2023-02-25T14:09:26.174Z,93.50
2023-02-25T14:12:33.580Z,96.30
2023-02-25T14:15:34.179Z,96.20
2023-02-25T14:18:29.705Z,97.50
2023-02-25T14:21:27.327Z,98.20
2023-02-25T14:24:24.582Z,98.00
2023-02-25T14:27:34.409Z,98.60
2023-02-25T14:30:25.910Z,99.90
2023-02-25T14:33:20.910Z,99.90
2023-02-25T14:36:13.456Z,99.90
2023-02-25T14:38:58.174Z,99.90
2023-02-25T14:41:41.483Z,99.90
2023-02-25T14:44:16.797Z,99.90
2023-02-25T14:46:54.848Z,99.90
2023-02-25T14:49:40.958Z,99.90
2023-02-25T14:52:39.432Z,99.90
2023-02-25T14:56:15.932Z,99.90
2023-02-25T14:59:17.146Z,99.90
2023-02-25T15:02:08.846Z,99.90
2023-02-25T15:05:10.628Z,99.90
2023-02-25T15:08:11.404Z,99.90
2023-02-25T15:11:23.052Z,99.90
2023-02-25T15:14:15.979Z,99.90
2023-02-25T15:17:09.525Z,99.90
2023-02-25T15:20:47.874Z,99.90
2023-02-25T15:23:20.529Z,99.90
2023-02-25T15:25:49.721Z,99.90
2023-02-25T15:28:31.804Z,99.90
2023-02-25T15:31:01.857Z,99.90
2023-02-25T15:33:43.581Z,99.90
2023-02-25T15:36:17.319Z,99.90
2023-02-25T15:38:50.478Z,99.90
2023-02-25T15:41:29.647Z,99.90
2023-02-25T15:44:08.900Z,99.90
2023-02-25T15:46:35.773Z,99.90
2023-02-25T15:49:16.114Z,99.90
2023-02-25T15:51:49.785Z,99.90
2023-02-25T15:54:29.067Z,99.90
2023-02-25T15:56:58.059Z,99.90
2023-02-25T16:00:00.718Z,99.90
2023-02-25T16:02:30.728Z,99.90
2023-02-25T16:04:58.650Z,99.90
2023-02-25T16:07:39.870Z,99.90
2023-02-25T16:10:45.752Z,99.90
2023-02-25T16:13:27.105Z,99.80
2023-02-25T16:15:57.642Z,99.70
2023-02-25T16:18:42.510Z,99.90
2023-02-25T16:21:29.559Z,99.90
2023-02-25T16:24:00.116Z,99.90
2023-02-25T16:26:58.535Z,99.90
2023-02-25T16:30:06.363Z,99.90
2023-02-25T16:33:18.436Z,99.90
2023-02-25T16:36:07.728Z,99.90
2023-02-25T16:38:56.191Z,99.90
2023-02-25T16:41:30.317Z,99.90
2023-02-25T16:44:03.913Z,99.90
2023-02-25T16:46:33.998Z,99.90
2023-02-25T16:49:04.681Z,99.90
2023-02-25T16:51:42.695Z,99.90
2023-02-25T16:54:17.885Z,99.90
2023-02-25T16:56:47.990Z,99.90
2023-02-25T16:59:14.941Z,99.90
2023-02-25T17:01:57.324Z,99.90
2023-02-25T17:04:33.272Z,99.90
2023-02-25T17:07:19.482Z,99.90
2023-02-25T17:10:00.624Z,99.90
2023-02-25T17:12:40.863Z,99.90
2023-02-25T17:15:22.069Z,99.90
2023-02-25T17:18:09.887Z,99.90
2023-02-25T17:20:37.791Z,99.90
2023-02-25T17:23:11.090Z,99.90
2023-02-25T17:25:48.489Z,99.90
2023-02-25T17:28:25.091Z,99.90
2023-02-25T17:30:52.607Z,99.90
2023-02-25T17:33:26.965Z,99.90
2023-02-25T17:36:08.670Z,99.90
2023-02-25T17:38:38.619Z,99.90
2023-02-25T17:41:06.679Z,99.90
2023-02-25T17:43:38.911Z,99.90
2023-02-25T17:46:29.947Z,99.90
2023-02-25T17:49:03.550Z,99.90
2023-02-25T17:51:34.508Z,99.90
2023-02-25T17:54:05.467Z,99.90
2023-02-25T17:56:34.780Z,99.90
2023-02-25T17:59:12.545Z,99.90
2023-02-25T18:01:55.792Z,99.90
2023-02-25T18:04:40.649Z,99.90
2023-02-25T18:07:32.596Z,99.90
2023-02-25T18:10:01.194Z,99.90
2023-02-25T18:12:35.423Z,99.90
2023-02-25T18:15:15.555Z,99.90
2023-02-25T18:17:47.869Z,99.90
2023-02-25T18:20:34.560Z,99.90
2023-02-25T18:23:08.006Z,99.90
2023-02-25T18:25:40.548Z,99.90
2023-02-25T18:28:18.558Z,99.90
2023-02-25T18:30:45.714Z,99.90
2023-02-25T18:33:13.319Z,99.90
2023-02-25T18:35:43.872Z,99.90
2023-02-25T18:38:26.283Z,99.90
2023-02-25T18:40:54.431Z,99.90
2023-02-25T18:43:28.942Z,99.90
2023-02-25T18:45:56.240Z,99.90
2023-02-25T18:48:23.312Z,99.90
2023-02-25T18:50:50.303Z,99.90
2023-02-25T18:53:23.518Z,99.90
2023-02-25T18:55:52.151Z,99.90
2023-02-25T18:58:23.654Z,99.90
2023-02-25T19:00:57.670Z,99.90
2023-02-25T19:03:37.641Z,99.90
2023-02-25T19:06:05.563Z,99.90
2023-02-25T19:08:32.899Z,99.90
2023-02-25T19:10:59.896Z,99.90
2023-02-25T19:13:35.501Z,99.90
2023-02-25T19:16:03.403Z,99.90
2023-02-25T19:18:30.616Z,99.90
2023-02-25T19:20:57.670Z,99.90
2023-02-25T19:23:25.000Z,99.90
2023-02-25T19:25:58.363Z,99.90
2023-02-25T19:28:25.413Z,99.90
2023-02-25T19:30:52.728Z,99.90
2023-02-25T19:33:19.612Z,99.90
2023-02-25T19:35:46.538Z,99.90
2023-02-25T19:38:20.221Z,99.90
2023-02-25T19:40:48.135Z,99.90
2023-02-25T19:43:15.946Z,99.90
2023-02-25T19:45:43.771Z,99.90
2023-02-25T19:48:11.163Z,99.90
2023-02-25T19:50:41.362Z,99.90
2023-02-25T19:53:08.652Z,99.90
2023-02-25T19:55:36.058Z,99.90
2023-02-25T19:58:03.269Z,99.90
2023-02-25T20:00:32.336Z,99.90
2023-02-25T20:02:59.269Z,99.90
2023-02-25T20:05:26.301Z,99.90
2023-02-25T20:07:53.301Z,99.90
2023-02-25T20:10:21.787Z,99.90
2023-02-25T20:12:48.926Z,99.90
2023-02-25T20:15:16.556Z,99.90
2023-02-25T20:17:45.807Z,99.90
2023-02-25T20:20:16.096Z,99.90
2023-02-25T20:22:43.725Z,99.90
2023-02-25T20:25:13.411Z,99.90
2023-02-25T20:27:43.416Z,99.90
2023-02-25T20:30:17.582Z,99.90
2023-02-25T20:32:46.357Z,99.90
2023-02-25T20:35:20.394Z,99.90
2023-02-25T20:38:11.597Z,99.90
2023-02-25T20:40:38.697Z,99.90
2023-02-25T20:43:05.750Z,99.90
2023-02-25T20:45:33.903Z,99.90
2023-02-25T20:48:01.309Z,99.90
2023-02-25T20:50:29.472Z,99.90
2023-02-25T20:52:56.928Z,99.90
2023-02-25T20:55:24.013Z,99.90
2023-02-25T20:57:51.268Z,99.90
2023-02-25T21:00:20.472Z,99.90
2023-02-25T21:02:47.605Z,99.90
2023-02-25T21:05:14.668Z,99.90
2023-02-25T21:07:41.748Z,99.90
2023-02-25T21:10:10.889Z,99.90
2023-02-25T21:12:37.977Z,99.90
2023-02-25T21:15:05.489Z,99.90
2023-02-25T21:17:32.482Z,99.90
2023-02-25T21:19:59.415Z,99.90
2023-02-25T21:22:26.316Z,99.90
2023-02-25T21:24:53.233Z,99.90
2023-02-25T21:27:20.139Z,99.90
2023-02-25T21:29:47.124Z,99.90
2023-02-25T21:32:14.353Z,99.90
2023-02-25T21:34:41.279Z,99.90
2023-02-25T21:37:08.247Z,99.90
2023-02-25T21:39:35.141Z,99.90
2023-02-25T21:42:02.388Z,99.90
2023-02-25T21:44:29.305Z,99.90
2023-02-25T21:46:58.028Z,99.90
2023-02-25T21:49:25.438Z,99.90
2023-02-25T21:51:52.446Z,99.90
2023-02-25T21:54:19.407Z,99.90
2023-02-25T21:56:46.457Z,99.90
2023-02-25T21:59:13.397Z,99.90
2023-02-25T22:01:42.218Z,99.90
2023-02-25T22:04:09.982Z,99.90
2023-02-25T22:06:37.707Z,99.90
2023-02-25T22:09:06.906Z,99.90
2023-02-25T22:11:36.187Z,99.90
2023-02-25T22:14:07.135Z,99.90
2023-02-25T22:16:35.646Z,99.90
2023-02-25T22:19:02.764Z,99.90
2023-02-25T22:21:32.547Z,99.90
2023-02-25T22:24:01.958Z,99.90
2023-02-25T22:26:33.287Z,99.90
2023-02-25T22:29:04.656Z,99.90
2023-02-25T22:31:32.867Z,99.90
2023-02-25T22:34:00.829Z,99.90
2023-02-25T22:36:28.431Z,99.90
2023-02-25T22:38:56.484Z,99.90
2023-02-25T22:41:26.974Z,99.90
2023-02-25T22:43:54.641Z,99.90
2023-02-25T22:46:30.797Z,99.90
2023-02-25T22:48:58.573Z,99.90
2023-02-25T22:51:33.120Z,99.90
2023-02-25T22:54:00.709Z,99.90
2023-02-25T22:56:27.890Z,99.90
2023-02-25T22:58:55.196Z,99.90
2023-02-25T23:01:24.835Z,99.90
2023-02-25T23:03:53.221Z,99.90
2023-02-25T23:06:34.296Z,99.90
2023-02-25T23:09:09.286Z,99.90
2023-02-25T23:11:40.199Z,99.90
2023-02-25T23:14:07.135Z,99.90
2023-02-25T23:16:41.386Z,99.90
2023-02-25T23:19:15.562Z,99.90
2023-02-25T23:21:42.592Z,99.90
2023-02-25T23:24:15.994Z,99.90
2023-02-25T23:26:43.826Z,99.90
2023-02-25T23:29:12.027Z,99.90
2023-02-25T23:31:44.728Z,99.90
2023-02-25T23:34:16.951Z,99.90
2023-02-25T23:36:45.116Z,99.90
2023-02-25T23:39:13.876Z,99.90
2023-02-25T23:41:41.181Z,99.90
2023-02-25T23:44:09.131Z,99.90
2023-02-25T23:46:37.177Z,99.90
2023-02-25T23:49:07.418Z,99.90
2023-02-25T23:51:35.850Z,99.90
2023-02-25T23:54:05.677Z,99.90
2023-02-25T23:56:35.261Z,99.90
2023-02-25T23:59:02.645Z,99.90
